createdAt,value
2017-04-19T00:00:24.141Z,1022.21
2017-04-19T00:01:25.554Z,1022.22
2017-04-19T00:02:27.941Z,1022.23
2017-04-19T00:03:29.361Z,1022.21
2017-04-19T00:04:30.790Z,1022.26
2017-04-19T00:05:32.208Z,1022.27
2017-04-19T00:06:33.629Z,1022.21
2017-04-19T00:07:35.056Z,1022.23
2017-04-19T00:08:36.469Z,1022.21
2017-04-19T00:09:37.888Z,1022.23
2017-04-19T00:10:39.316Z,1022.21
2017-04-19T00:11:40.760Z,1022.25
2017-04-19T00:12:42.160Z,1022.25
2017-04-19T00:13:43.579Z,1022.23
2017-04-19T00:14:44.994Z,1022.24
2017-04-19T00:15:46.409Z,1022.24
2017-04-19T00:16:47.879Z,1022.26
2017-04-19T00:17:49.302Z,1022.28
2017-04-19T00:18:50.729Z,1022.29
2017-04-19T00:19:52.145Z,1022.30
2017-04-19T00:20:53.566Z,1022.31
2017-04-19T00:21:54.993Z,1022.30
2017-04-19T00:22:56.408Z,1022.30
2017-04-19T00:23:58.754Z,1022.29
2017-04-19T00:25:00.170Z,1022.28
2017-04-19T00:26:01.588Z,1022.31
2017-04-19T00:27:03.005Z,1022.32
2017-04-19T00:28:04.430Z,1022.27
2017-04-19T00:29:05.845Z,1022.27
2017-04-19T00:30:07.265Z,1022.30
2017-04-19T00:31:08.690Z,1022.30
2017-04-19T00:32:10.112Z,1022.31
2017-04-19T00:33:11.540Z,1022.34
2017-04-19T00:34:12.958Z,1022.31
2017-04-19T00:35:14.377Z,1022.36
2017-04-19T00:36:15.791Z,1022.34
2017-04-19T00:37:17.220Z,1022.32
2017-04-19T00:38:18.643Z,1022.36
2017-04-19T00:39:20.067Z,1022.37
2017-04-19T00:40:21.487Z,1022.39
2017-04-19T00:41:22.908Z,1022.37
2017-04-19T00:42:24.332Z,1022.41
2017-04-19T00:43:25.754Z,1022.37
2017-04-19T00:44:27.169Z,1022.38
2017-04-19T00:45:28.589Z,1022.39
2017-04-19T00:46:30.009Z,1022.40
2017-04-19T00:47:31.430Z,1022.33
2017-04-19T00:48:32.848Z,1022.36
2017-04-19T00:49:34.269Z,1022.42
2017-04-19T00:50:35.686Z,1022.41
2017-04-19T00:51:37.114Z,1022.41
2017-04-19T00:52:38.532Z,1022.40
2017-04-19T00:53:39.961Z,1022.40
2017-04-19T00:54:41.389Z,1022.39
2017-04-19T00:55:42.808Z,1022.40
2017-04-19T00:56:44.230Z,1022.45
2017-04-19T00:57:45.647Z,1022.42
2017-04-19T00:58:47.082Z,1022.39
2017-04-19T00:59:48.500Z,1022.43
2017-04-19T01:00:49.941Z,1022.41
2017-04-19T01:01:51.395Z,1022.42
2017-04-19T01:02:52.820Z,1022.41
2017-04-19T01:03:54.250Z,1022.43
2017-04-19T01:04:55.666Z,1022.46
2017-04-19T01:05:57.088Z,1022.41
2017-04-19T01:06:58.509Z,1022.41
2017-04-19T01:07:59.933Z,1022.43
2017-04-19T01:09:01.357Z,1022.47
2017-04-19T01:10:02.768Z,1022.46
2017-04-19T01:11:04.185Z,1022.44
2017-04-19T01:12:05.610Z,1022.45
2017-04-19T01:13:07.033Z,1022.46
2017-04-19T01:14:08.452Z,1022.43
2017-04-19T01:15:09.877Z,1022.48
2017-04-19T01:16:11.304Z,1022.47
2017-04-19T01:17:12.717Z,1022.50
2017-04-19T01:18:14.139Z,1022.49
2017-04-19T01:19:15.558Z,1022.48
2017-04-19T01:20:16.981Z,1022.52
2017-04-19T01:21:18.402Z,1022.55
2017-04-19T01:22:19.817Z,1022.55
2017-04-19T01:23:21.236Z,1022.58
2017-04-19T01:24:22.654Z,1022.59
2017-04-19T01:25:24.073Z,1022.55
2017-04-19T01:26:25.493Z,1022.54
2017-04-19T01:27:26.915Z,1022.55
2017-04-19T01:28:28.340Z,1022.55
2017-04-19T01:29:29.760Z,1022.54
2017-04-19T01:30:31.181Z,1022.56
2017-04-19T01:31:32.601Z,1022.59
2017-04-19T01:32:34.028Z,1022.62
2017-04-19T01:33:35.451Z,1022.59
2017-04-19T01:34:36.872Z,1022.66
2017-04-19T01:35:38.288Z,1022.65
2017-04-19T01:36:39.709Z,1022.63
2017-04-19T01:37:41.132Z,1022.66
2017-04-19T01:38:42.553Z,1022.66
2017-04-19T01:39:43.977Z,1022.67
2017-04-19T01:40:45.418Z,1022.66
2017-04-19T01:41:46.837Z,1022.71
2017-04-19T01:42:48.214Z,1022.73
2017-04-19T01:43:49.628Z,1022.76
2017-04-19T01:44:51.051Z,1022.71
2017-04-19T01:45:52.472Z,1022.74
2017-04-19T01:46:53.893Z,1022.69
2017-04-19T01:47:55.316Z,1022.65
2017-04-19T01:48:56.736Z,1022.70
2017-04-19T01:49:58.170Z,1022.69
2017-04-19T01:50:59.604Z,1022.71
2017-04-19T01:52:01.026Z,1022.74
2017-04-19T01:53:02.445Z,1022.73
2017-04-19T01:54:03.860Z,1022.69
2017-04-19T01:55:05.272Z,1022.70
2017-04-19T01:56:06.696Z,1022.74
2017-04-19T01:57:08.111Z,1022.72
2017-04-19T01:58:09.527Z,1022.69
2017-04-19T01:59:10.941Z,1022.81
2017-04-19T02:00:12.369Z,1022.76
2017-04-19T02:01:13.794Z,1022.79
2017-04-19T02:02:15.216Z,1022.77
2017-04-19T02:03:17.171Z,1022.77
2017-04-19T02:04:18.569Z,1022.76
2017-04-19T02:05:19.990Z,1022.77
2017-04-19T02:06:21.420Z,1022.77
2017-04-19T02:07:22.838Z,1022.78
2017-04-19T02:08:24.261Z,1022.80
2017-04-19T02:09:25.679Z,1022.81
2017-04-19T02:10:27.131Z,1022.83
2017-04-19T02:11:28.547Z,1022.85
2017-04-19T02:12:29.973Z,1022.83
2017-04-19T02:13:31.396Z,1022.81
2017-04-19T02:14:32.819Z,1022.88
2017-04-19T02:15:34.240Z,1022.85
2017-04-19T02:16:35.657Z,1022.89
2017-04-19T02:17:37.078Z,1022.93
2017-04-19T02:18:38.496Z,1022.90
2017-04-19T02:19:39.915Z,1022.93
2017-04-19T02:20:41.341Z,1022.92
2017-04-19T02:21:42.759Z,1022.87
2017-04-19T02:22:44.181Z,1022.91
2017-04-19T02:23:45.602Z,1022.93
2017-04-19T02:24:47.020Z,1022.92
2017-04-19T02:25:48.444Z,1022.90
2017-04-19T02:26:49.866Z,1022.96
2017-04-19T02:27:51.288Z,1022.93
2017-04-19T02:28:52.707Z,1022.92
2017-04-19T02:29:54.129Z,1022.94
2017-04-19T02:30:55.544Z,1022.94
2017-04-19T02:31:56.965Z,1022.98
2017-04-19T02:32:58.381Z,1022.97
2017-04-19T02:33:59.818Z,1022.97
2017-04-19T02:35:02.037Z,1022.97
2017-04-19T02:36:02.599Z,1022.96
2017-04-19T02:37:04.024Z,1022.95
2017-04-19T02:38:05.468Z,1023.01
2017-04-19T02:39:06.860Z,1023.01
2017-04-19T02:40:08.284Z,1022.98
2017-04-19T02:41:09.704Z,1022.98
2017-04-19T02:42:11.162Z,1023.02
2017-04-19T02:43:12.546Z,1022.97
2017-04-19T02:44:13.961Z,1023.03
2017-04-19T02:45:15.392Z,1023.01
2017-04-19T02:46:16.809Z,1023.02
2017-04-19T02:47:18.232Z,1023.02
2017-04-19T02:48:19.652Z,1023.00
2017-04-19T02:49:21.923Z,1023.05
2017-04-19T02:50:23.353Z,1023.04
2017-04-19T02:51:24.776Z,1023.05
2017-04-19T02:52:26.194Z,1023.06
2017-04-19T02:53:27.616Z,1023.09
2017-04-19T02:54:29.032Z,1023.12
2017-04-19T02:55:30.453Z,1023.08
2017-04-19T02:56:31.872Z,1023.14
2017-04-19T02:57:33.292Z,1023.16
2017-04-19T02:58:34.709Z,1023.17
2017-04-19T02:59:36.130Z,1023.17
2017-04-19T03:00:37.550Z,1023.15
2017-04-19T03:01:38.970Z,1023.15
2017-04-19T03:02:40.391Z,1023.16
2017-04-19T03:03:41.809Z,1023.23
2017-04-19T03:04:43.236Z,1023.22
2017-04-19T03:05:44.650Z,1023.20
2017-04-19T03:06:46.067Z,1023.20
2017-04-19T03:07:47.483Z,1023.17
2017-04-19T03:08:48.905Z,1023.22
2017-04-19T03:09:50.327Z,1023.25
2017-04-19T03:10:51.738Z,1023.20
2017-04-19T03:11:53.165Z,1023.19
2017-04-19T03:12:54.589Z,1023.18
2017-04-19T03:13:56.015Z,1023.18
2017-04-19T03:14:57.437Z,1023.17
2017-04-19T03:15:58.861Z,1023.17
2017-04-19T03:17:00.281Z,1023.21
2017-04-19T03:18:01.715Z,1023.15
2017-04-19T03:19:03.130Z,1023.20
2017-04-19T03:20:04.550Z,1023.18
2017-04-19T03:21:05.968Z,1023.21
2017-04-19T03:22:07.934Z,1023.16
2017-04-19T03:23:09.331Z,1023.16
2017-04-19T03:24:10.761Z,1023.21
2017-04-19T03:25:12.183Z,1023.16
2017-04-19T03:26:13.606Z,1023.21
2017-04-19T03:27:15.032Z,1023.21
2017-04-19T03:28:16.451Z,1023.26
2017-04-19T03:29:17.873Z,1023.22
2017-04-19T03:30:19.292Z,1023.26
2017-04-19T03:31:20.710Z,1023.21
2017-04-19T03:32:22.121Z,1023.26
2017-04-19T03:33:23.536Z,1023.26
2017-04-19T03:34:24.955Z,1023.24
2017-04-19T03:35:26.383Z,1023.29
2017-04-19T03:36:27.800Z,1023.30
2017-04-19T03:37:29.224Z,1023.31
2017-04-19T03:38:30.640Z,1023.34
2017-04-19T03:39:32.057Z,1023.35
2017-04-19T03:40:33.471Z,1023.32
2017-04-19T03:41:34.891Z,1023.36
2017-04-19T03:42:36.348Z,1023.28
2017-04-19T03:43:37.768Z,1023.32
2017-04-19T03:44:39.181Z,1023.33
2017-04-19T03:45:40.598Z,1023.39
2017-04-19T03:46:42.013Z,1023.37
2017-04-19T03:47:43.442Z,1023.34
2017-04-19T03:48:44.862Z,1023.35
2017-04-19T03:49:46.276Z,1023.37
2017-04-19T03:50:47.694Z,1023.39
2017-04-19T03:51:49.114Z,1023.42
2017-04-19T03:52:50.529Z,1023.44
2017-04-19T03:53:51.953Z,1023.44
2017-04-19T03:54:53.427Z,1023.41
2017-04-19T03:55:54.849Z,1023.42
2017-04-19T03:56:56.264Z,1023.42
2017-04-19T03:57:57.688Z,1023.46
2017-04-19T03:58:59.112Z,1023.48
2017-04-19T04:00:00.537Z,1023.49
2017-04-19T04:01:01.945Z,1023.48
2017-04-19T04:02:03.362Z,1023.51
2017-04-19T04:03:04.784Z,1023.48
2017-04-19T04:04:06.197Z,1023.50
2017-04-19T04:05:07.618Z,1023.48
2017-04-19T04:06:09.035Z,1023.48
2017-04-19T04:07:10.445Z,1023.47
2017-04-19T04:08:11.873Z,1023.50
2017-04-19T04:09:13.301Z,1023.48
2017-04-19T04:10:14.716Z,1023.48
2017-04-19T04:11:16.139Z,1023.53
2017-04-19T04:12:17.553Z,1023.57
2017-04-19T04:13:18.967Z,1023.54
2017-04-19T04:14:20.390Z,1023.58
2017-04-19T04:15:21.810Z,1023.57
2017-04-19T04:16:23.229Z,1023.58
2017-04-19T04:17:24.648Z,1023.64
2017-04-19T04:18:26.072Z,1023.65
2017-04-19T04:19:27.491Z,1023.59
2017-04-19T04:20:28.909Z,1023.63
2017-04-19T04:21:30.330Z,1023.64
2017-04-19T04:22:31.750Z,1023.67
2017-04-19T04:23:33.174Z,1023.69
2017-04-19T04:24:34.592Z,1023.65
2017-04-19T04:25:36.011Z,1023.69
2017-04-19T04:26:37.437Z,1023.68
2017-04-19T04:27:38.850Z,1023.73
2017-04-19T04:28:40.270Z,1023.70
2017-04-19T04:29:41.690Z,1023.72
2017-04-19T04:30:43.116Z,1023.71
2017-04-19T04:31:44.530Z,1023.69
2017-04-19T04:32:45.952Z,1023.71
2017-04-19T04:33:47.370Z,1023.75
2017-04-19T04:34:48.803Z,1023.74
2017-04-19T04:35:50.222Z,1023.76
2017-04-19T04:36:51.643Z,1023.82
2017-04-19T04:37:53.061Z,1023.79
2017-04-19T04:38:54.484Z,1023.78
2017-04-19T04:39:55.926Z,1023.81
2017-04-19T04:40:57.350Z,1023.83
2017-04-19T04:41:58.773Z,1023.81
2017-04-19T04:43:00.195Z,1023.78
2017-04-19T04:44:01.616Z,1023.74
2017-04-19T04:45:03.031Z,1023.82
2017-04-19T04:46:04.453Z,1023.76
2017-04-19T04:47:05.874Z,1023.82
2017-04-19T04:48:07.296Z,1023.83
2017-04-19T04:49:08.724Z,1023.80
2017-04-19T04:50:10.139Z,1023.85
2017-04-19T04:51:11.562Z,1023.85
2017-04-19T04:52:12.980Z,1023.84
2017-04-19T04:53:14.400Z,1023.81
2017-04-19T04:54:15.829Z,1023.83
2017-04-19T04:55:17.256Z,1023.90
2017-04-19T04:56:18.672Z,1023.93
2017-04-19T04:57:20.087Z,1023.94
2017-04-19T04:58:21.507Z,1023.89
2017-04-19T04:59:22.924Z,1023.96
2017-04-19T05:00:24.346Z,1023.97
2017-04-19T05:01:25.774Z,1023.99
2017-04-19T05:02:27.193Z,1023.97
2017-04-19T05:03:28.609Z,1024.04
2017-04-19T05:04:30.032Z,1023.99
2017-04-19T05:05:31.455Z,1024.00
2017-04-19T05:06:32.868Z,1024.03
2017-04-19T05:07:34.290Z,1023.99
2017-04-19T05:08:35.715Z,1024.04
2017-04-19T05:09:37.133Z,1024.04
2017-04-19T05:10:38.555Z,1024.01
2017-04-19T05:11:39.970Z,1024.04
2017-04-19T05:12:41.392Z,1024.05
2017-04-19T05:13:42.812Z,1024.03
2017-04-19T05:14:44.241Z,1024.06
2017-04-19T05:15:45.663Z,1024.08
2017-04-19T05:16:47.088Z,1024.05
2017-04-19T05:17:48.516Z,1024.08
2017-04-19T05:18:49.929Z,1024.05
2017-04-19T05:19:51.354Z,1024.09
2017-04-19T05:20:52.818Z,1024.13
2017-04-19T05:21:54.240Z,1024.16
2017-04-19T05:22:55.739Z,1024.15
2017-04-19T05:23:57.160Z,1024.18
2017-04-19T05:24:58.585Z,1024.15
2017-04-19T05:26:00.006Z,1024.14
2017-04-19T05:27:01.439Z,1024.21
2017-04-19T05:28:02.861Z,1024.19
2017-04-19T05:29:04.279Z,1024.25
2017-04-19T05:30:06.678Z,1024.26
2017-04-19T05:31:08.097Z,1024.25
2017-04-19T05:32:09.531Z,1024.27
2017-04-19T05:33:10.956Z,1024.28
2017-04-19T05:34:12.383Z,1024.25
2017-04-19T05:35:13.762Z,1024.31
2017-04-19T05:36:15.184Z,1024.27
2017-04-19T05:37:16.606Z,1024.32
2017-04-19T05:38:18.023Z,1024.31
2017-04-19T05:39:19.453Z,1024.35
2017-04-19T05:40:20.879Z,1024.33
2017-04-19T05:41:22.299Z,1024.35
2017-04-19T05:42:23.711Z,1024.38
2017-04-19T05:43:25.145Z,1024.38
2017-04-19T05:44:26.568Z,1024.43
2017-04-19T05:45:28.003Z,1024.43
2017-04-19T05:46:29.427Z,1024.43
2017-04-19T05:47:30.845Z,1024.43
2017-04-19T05:48:32.270Z,1024.49
2017-04-19T05:49:33.688Z,1024.52
2017-04-19T05:50:35.113Z,1024.51
2017-04-19T05:51:36.533Z,1024.51
2017-04-19T05:52:37.959Z,1024.51
2017-04-19T05:53:39.386Z,1024.47
2017-04-19T05:54:40.806Z,1024.52
2017-04-19T05:55:42.223Z,1024.51
2017-04-19T05:56:43.644Z,1024.52
2017-04-19T05:57:45.073Z,1024.57
2017-04-19T05:58:46.494Z,1024.57
2017-04-19T05:59:47.917Z,1024.60
2017-04-19T06:00:49.343Z,1024.56
2017-04-19T06:01:50.761Z,1024.62
2017-04-19T06:02:52.193Z,1024.63
2017-04-19T06:03:53.622Z,1024.62
2017-04-19T06:04:55.043Z,1024.63
2017-04-19T06:05:56.506Z,1024.66
2017-04-19T06:06:57.934Z,1024.72
2017-04-19T06:07:59.359Z,1024.68
2017-04-19T06:09:00.783Z,1024.73
2017-04-19T06:10:02.204Z,1024.71
2017-04-19T06:11:03.617Z,1024.72
2017-04-19T06:12:05.040Z,1024.74
2017-04-19T06:13:06.461Z,1024.71
2017-04-19T06:14:07.884Z,1024.78
2017-04-19T06:15:09.383Z,1024.79
2017-04-19T06:16:10.806Z,1024.79
2017-04-19T06:17:12.229Z,1024.74
2017-04-19T06:18:13.653Z,1024.79
2017-04-19T06:19:15.146Z,1024.80
2017-04-19T06:20:16.569Z,1024.83
2017-04-19T06:21:17.994Z,1024.80
2017-04-19T06:22:19.424Z,1024.85
2017-04-19T06:23:20.840Z,1024.84
2017-04-19T06:24:22.264Z,1024.79
2017-04-19T06:25:23.695Z,1024.89
2017-04-19T06:26:25.122Z,1024.85
2017-04-19T06:27:26.541Z,1024.88
2017-04-19T06:28:27.958Z,1024.90
2017-04-19T06:29:29.382Z,1024.89
2017-04-19T06:30:30.802Z,1024.88
2017-04-19T06:31:32.223Z,1024.88
2017-04-19T06:32:33.652Z,1024.86
2017-04-19T06:33:35.081Z,1024.94
2017-04-19T06:34:36.498Z,1024.93
2017-04-19T06:35:37.925Z,1024.98
2017-04-19T06:36:39.343Z,1024.94
2017-04-19T06:37:40.765Z,1025.02
2017-04-19T06:38:42.190Z,1025.03
2017-04-19T06:39:43.613Z,1025.02
2017-04-19T06:40:45.894Z,1025.01
2017-04-19T06:41:47.317Z,1025.06
2017-04-19T06:42:48.736Z,1025.01
2017-04-19T06:43:50.151Z,1025.01
2017-04-19T06:44:51.570Z,1025.02
2017-04-19T06:45:53.000Z,1025.11
2017-04-19T06:46:54.428Z,1025.04
2017-04-19T06:47:55.855Z,1025.04
2017-04-19T06:48:57.282Z,1025.06
2017-04-19T06:49:58.836Z,1025.09
2017-04-19T06:51:00.259Z,1025.07
2017-04-19T06:52:01.684Z,1025.13
2017-04-19T06:53:03.097Z,1025.15
2017-04-19T06:54:04.525Z,1025.11
2017-04-19T06:55:05.955Z,1025.12
2017-04-19T06:56:07.382Z,1025.16
2017-04-19T06:57:08.799Z,1025.12
2017-04-19T06:58:10.221Z,1025.14
2017-04-19T06:59:11.653Z,1025.18
2017-04-19T07:00:13.070Z,1025.13
2017-04-19T07:01:14.490Z,1025.15
2017-04-19T07:02:15.914Z,1025.21
2017-04-19T07:03:17.342Z,1025.21
2017-04-19T07:04:18.773Z,1025.18
2017-04-19T07:05:20.194Z,1025.17
2017-04-19T07:06:21.624Z,1025.24
2017-04-19T07:07:23.041Z,1025.19
2017-04-19T07:08:24.462Z,1025.24
2017-04-19T07:09:25.888Z,1025.20
2017-04-19T07:10:27.356Z,1025.19
2017-04-19T07:11:28.777Z,1025.22
2017-04-19T07:12:30.201Z,1025.22
2017-04-19T07:13:31.643Z,1025.26
2017-04-19T07:14:33.072Z,1025.29
2017-04-19T07:15:34.497Z,1025.29
2017-04-19T07:16:35.916Z,1025.26
2017-04-19T07:17:37.370Z,1025.26
2017-04-19T07:18:38.736Z,1025.37
2017-04-19T07:19:40.159Z,1025.35
2017-04-19T07:20:41.583Z,1025.32
2017-04-19T07:21:43.000Z,1025.32
2017-04-19T07:22:44.424Z,1025.32
2017-04-19T07:23:45.845Z,1025.35
2017-04-19T07:24:47.267Z,1025.32
2017-04-19T07:25:48.695Z,1025.31
2017-04-19T07:26:50.108Z,1025.34
2017-04-19T07:27:51.531Z,1025.32
2017-04-19T07:28:52.966Z,1025.28
2017-04-19T07:29:54.392Z,1025.26
2017-04-19T07:30:55.815Z,1025.30
2017-04-19T07:31:57.235Z,1025.32
2017-04-19T07:32:58.666Z,1025.35
2017-04-19T07:34:00.094Z,1025.29
2017-04-19T07:35:01.518Z,1025.30
2017-04-19T07:36:02.935Z,1025.33
2017-04-19T07:37:04.356Z,1025.36
2017-04-19T07:38:05.781Z,1025.36
2017-04-19T07:39:07.206Z,1025.36
2017-04-19T07:40:08.630Z,1025.33
2017-04-19T07:41:10.056Z,1025.34
2017-04-19T07:42:11.479Z,1025.37
2017-04-19T07:43:12.903Z,1025.42
2017-04-19T07:44:14.330Z,1025.38
2017-04-19T07:45:15.760Z,1025.40
2017-04-19T07:46:17.188Z,1025.44
2017-04-19T07:47:18.614Z,1025.41
2017-04-19T07:48:20.042Z,1025.41
2017-04-19T07:49:21.472Z,1025.41
2017-04-19T07:50:22.904Z,1025.36
2017-04-19T07:51:24.335Z,1025.49
2017-04-19T07:52:25.760Z,1025.50
2017-04-19T07:53:27.183Z,1025.46
2017-04-19T07:54:28.606Z,1025.58
2017-04-19T07:55:30.041Z,1025.50
2017-04-19T07:56:31.461Z,1025.48
2017-04-19T07:57:32.883Z,1025.49
2017-04-19T07:58:34.302Z,1025.57
2017-04-19T07:59:35.742Z,1025.58
2017-04-19T08:00:37.172Z,1025.48
2017-04-19T08:01:39.077Z,1025.52
2017-04-19T08:02:40.017Z,1025.49
2017-04-19T08:03:41.487Z,1025.51
2017-04-19T08:04:42.915Z,1025.62
2017-04-19T08:05:44.341Z,1025.58
2017-04-19T08:06:45.777Z,1025.55
2017-04-19T08:07:47.206Z,1025.58
2017-04-19T08:08:48.637Z,1025.61
2017-04-19T08:09:50.066Z,1025.60
2017-04-19T08:10:51.490Z,1025.65
2017-04-19T08:11:52.912Z,1025.58
2017-04-19T08:12:54.336Z,1025.59
2017-04-19T08:13:55.761Z,1025.60
2017-04-19T08:14:57.192Z,1025.61
2017-04-19T08:15:58.622Z,1025.58
2017-04-19T08:17:00.045Z,1025.66
2017-04-19T08:18:02.394Z,1025.63
2017-04-19T08:19:03.821Z,1025.63
2017-04-19T08:20:05.251Z,1025.64
2017-04-19T08:21:06.680Z,1025.68
2017-04-19T08:22:08.101Z,1025.65
2017-04-19T08:23:09.527Z,1025.63
2017-04-19T08:24:10.958Z,1025.58
2017-04-19T08:25:12.381Z,1025.63
2017-04-19T08:26:13.818Z,1025.63
2017-04-19T08:27:15.247Z,1025.72
2017-04-19T08:28:16.670Z,1025.74
2017-04-19T08:29:18.092Z,1025.72
2017-04-19T08:30:19.529Z,1025.68
2017-04-19T08:31:20.956Z,1025.66
2017-04-19T08:32:23.226Z,1025.67
2017-04-19T08:33:24.656Z,1025.68
2017-04-19T08:34:26.078Z,1025.68
2017-04-19T08:35:27.508Z,1025.69
2017-04-19T08:36:28.940Z,1025.74
2017-04-19T08:37:30.365Z,1025.75
2017-04-19T08:38:31.789Z,1025.75
2017-04-19T08:39:33.218Z,1025.72
2017-04-19T08:40:34.645Z,1025.74
2017-04-19T08:41:36.074Z,1025.74
2017-04-19T08:42:37.508Z,1025.76
2017-04-19T08:43:38.886Z,1025.75
2017-04-19T08:44:40.312Z,1025.80
2017-04-19T08:45:41.735Z,1025.79
2017-04-19T08:46:43.166Z,1025.80
2017-04-19T08:47:44.593Z,1025.84
2017-04-19T08:48:46.014Z,1025.85
2017-04-19T08:49:47.475Z,1025.84
2017-04-19T08:50:48.895Z,1025.86
2017-04-19T08:51:50.335Z,1025.79
2017-04-19T08:52:51.754Z,1025.77
2017-04-19T08:53:53.183Z,1025.82
2017-04-19T08:54:54.612Z,1025.87
2017-04-19T08:55:56.036Z,1025.86
2017-04-19T08:56:57.473Z,1025.85
2017-04-19T08:57:58.896Z,1025.85
2017-04-19T08:59:00.320Z,1025.86
2017-04-19T09:00:01.800Z,1025.86
2017-04-19T09:01:03.309Z,1025.85
2017-04-19T09:02:04.734Z,1025.87
2017-04-19T09:03:06.171Z,1025.95
2017-04-19T09:04:07.606Z,1025.92
2017-04-19T09:05:09.031Z,1025.92
2017-04-19T09:06:10.454Z,1025.95
2017-04-19T09:07:11.855Z,1025.92
2017-04-19T09:08:13.367Z,1025.94
2017-04-19T09:09:14.793Z,1025.95
2017-04-19T09:10:16.224Z,1025.96
2017-04-19T09:11:17.654Z,1025.92
2017-04-19T09:12:19.191Z,1025.91
2017-04-19T09:13:20.614Z,1025.94
2017-04-19T09:14:22.049Z,1025.92
2017-04-19T09:15:23.492Z,1025.92
2017-04-19T09:16:24.921Z,1025.90
2017-04-19T09:17:26.353Z,1025.94
2017-04-19T09:18:27.860Z,1025.94
2017-04-19T09:19:29.284Z,1025.93
2017-04-19T09:20:30.703Z,1025.96
2017-04-19T09:21:32.133Z,1025.93
2017-04-19T09:22:33.560Z,1025.94
2017-04-19T09:23:35.009Z,1025.88
2017-04-19T09:24:36.438Z,1025.86
2017-04-19T09:25:37.876Z,1025.92
2017-04-19T09:26:39.314Z,1025.95
2017-04-19T09:27:40.743Z,1025.95
2017-04-19T09:28:42.176Z,1025.96
2017-04-19T09:29:43.642Z,1025.86
2017-04-19T09:30:45.063Z,1025.88
2017-04-19T09:31:46.483Z,1025.95
2017-04-19T09:32:47.936Z,1025.97
2017-04-19T09:33:49.901Z,1026.01
2017-04-19T09:34:51.327Z,1025.93
2017-04-19T09:35:52.752Z,1026.03
2017-04-19T09:36:54.180Z,1026.10
2017-04-19T09:37:55.614Z,1026.09
2017-04-19T09:38:57.045Z,1026.07
2017-04-19T09:39:58.469Z,1026.08
2017-04-19T09:40:59.905Z,1026.14
2017-04-19T09:42:01.332Z,1026.13
2017-04-19T09:43:02.758Z,1026.15
2017-04-19T09:44:04.185Z,1026.12
2017-04-19T09:45:05.613Z,1026.14
2017-04-19T09:46:07.035Z,1026.14
2017-04-19T09:47:08.466Z,1026.19
2017-04-19T09:48:09.887Z,1026.13
2017-04-19T09:49:11.313Z,1026.05
2017-04-19T09:50:12.743Z,1026.14
2017-04-19T09:51:14.175Z,1026.17
2017-04-19T09:52:15.599Z,1026.12
2017-04-19T09:53:17.037Z,1026.12
2017-04-19T09:54:18.459Z,1026.16
2017-04-19T09:55:19.882Z,1026.15
2017-04-19T09:56:21.264Z,1026.20
2017-04-19T09:57:22.690Z,1026.19
2017-04-19T09:58:24.125Z,1026.11
2017-04-19T09:59:25.625Z,1026.11
2017-04-19T10:00:27.641Z,1026.11
2017-04-19T10:01:29.082Z,1026.12
2017-04-19T10:02:30.523Z,1026.03
2017-04-19T10:03:31.947Z,1026.08
2017-04-19T10:04:33.387Z,1026.05
2017-04-19T10:05:34.817Z,1026.05
2017-04-19T10:06:36.253Z,1026.09
2017-04-19T10:07:37.685Z,1026.11
2017-04-19T10:08:39.061Z,1026.09
2017-04-19T10:09:40.500Z,1026.13
2017-04-19T10:10:41.934Z,1026.11
2017-04-19T10:11:43.369Z,1026.07
2017-04-19T10:12:44.803Z,1026.14
2017-04-19T10:13:46.226Z,1026.17
2017-04-19T10:14:47.659Z,1026.20
2017-04-19T10:15:49.087Z,1026.16
2017-04-19T10:16:50.525Z,1026.12
2017-04-19T10:17:51.964Z,1026.16
2017-04-19T10:18:53.393Z,1026.20
2017-04-19T10:19:54.825Z,1026.10
2017-04-19T10:20:56.250Z,1026.08
2017-04-19T10:21:57.691Z,1026.12
2017-04-19T10:22:59.119Z,1026.03
2017-04-19T10:24:00.552Z,1026.07
2017-04-19T10:25:01.975Z,1026.04
2017-04-19T10:26:03.404Z,1026.05
2017-04-19T10:27:04.834Z,1026.11
2017-04-19T10:29:46.132Z,1026.05
2017-04-19T10:30:47.558Z,1026.09
2017-04-19T10:31:48.986Z,1026.07
2017-04-19T10:32:50.419Z,1026.14
2017-04-19T10:33:51.857Z,1026.13
2017-04-19T10:34:53.279Z,1026.07
2017-04-19T10:35:54.707Z,1026.04
2017-04-19T10:36:56.138Z,1026.10
2017-04-19T10:37:57.560Z,1026.15
2017-04-19T10:38:58.994Z,1026.08
2017-04-19T10:40:00.422Z,1026.07
2017-04-19T10:41:01.850Z,1026.08
2017-04-19T10:42:03.272Z,1026.05
2017-04-19T10:43:04.705Z,1026.08
2017-04-19T10:44:06.125Z,1026.02
2017-04-19T10:45:07.554Z,1026.08
2017-04-19T10:46:08.981Z,1026.05
2017-04-19T10:47:10.413Z,1026.19
2017-04-19T10:48:11.847Z,1026.15
2017-04-19T10:49:13.272Z,1026.09
2017-04-19T10:50:14.704Z,1026.15
2017-04-19T10:51:16.152Z,1026.13
2017-04-19T10:52:17.571Z,1026.13
2017-04-19T10:53:19.001Z,1026.12
2017-04-19T10:54:20.435Z,1026.06
2017-04-19T10:55:21.861Z,1026.12
2017-04-19T10:56:23.286Z,1026.16
2017-04-19T10:57:24.712Z,1026.13
2017-04-19T10:58:26.141Z,1026.11
2017-04-19T10:59:27.564Z,1026.12
2017-04-19T11:00:29.004Z,1026.11
2017-04-19T11:01:30.433Z,1026.16
2017-04-19T11:02:31.864Z,1026.15
2017-04-19T11:03:33.286Z,1026.16
2017-04-19T11:04:34.712Z,1026.12
2017-04-19T11:05:36.139Z,1026.14
2017-04-19T11:06:37.568Z,1026.11
2017-04-19T11:07:39.000Z,1026.06
2017-04-19T11:08:40.432Z,1026.10
2017-04-19T11:09:41.856Z,1026.08
2017-04-19T11:10:43.299Z,1026.09
2017-04-19T11:11:44.729Z,1026.13
2017-04-19T11:12:46.172Z,1026.11
2017-04-19T11:13:47.602Z,1026.13
2017-04-19T11:14:49.021Z,1026.26
2017-04-19T11:15:50.460Z,1026.24
2017-04-19T11:16:51.971Z,1026.27
2017-04-19T11:17:53.408Z,1026.24
2017-04-19T11:18:54.825Z,1026.26
2017-04-19T11:19:56.250Z,1026.28
2017-04-19T11:20:57.681Z,1026.21
2017-04-19T11:21:59.194Z,1026.19
2017-04-19T11:23:00.625Z,1026.20
2017-04-19T11:24:02.049Z,1026.15
2017-04-19T11:25:03.487Z,1026.20
2017-04-19T11:26:04.919Z,1026.12
2017-04-19T11:27:06.353Z,1026.07
2017-04-19T11:28:07.787Z,1026.10
2017-04-19T11:29:09.268Z,1026.04
2017-04-19T11:30:10.700Z,1026.03
2017-04-19T11:31:12.131Z,1026.12
2017-04-19T11:32:13.645Z,1026.13
2017-04-19T11:33:15.077Z,1026.12
2017-04-19T11:34:16.507Z,1026.06
2017-04-19T11:35:17.934Z,1026.07
2017-04-19T11:36:19.370Z,1026.10
2017-04-19T11:37:20.793Z,1026.15
2017-04-19T11:38:22.223Z,1026.07
2017-04-19T11:39:23.658Z,1026.02
2017-04-19T11:40:25.095Z,1026.09
2017-04-19T11:41:26.528Z,1026.11
2017-04-19T11:42:27.965Z,1026.12
2017-04-19T11:43:29.398Z,1026.13
2017-04-19T11:44:30.826Z,1026.16
2017-04-19T11:45:32.255Z,1026.13
2017-04-19T11:46:33.684Z,1026.12
2017-04-19T11:47:35.110Z,1026.15
2017-04-19T11:48:36.543Z,1026.10
2017-04-19T11:49:37.969Z,1026.07
2017-04-19T11:50:39.395Z,1026.03
2017-04-19T11:51:40.827Z,1026.07
2017-04-19T11:52:42.257Z,1026.06
2017-04-19T11:53:43.684Z,1026.05
2017-04-19T11:54:45.115Z,1026.09
2017-04-19T11:55:46.543Z,1026.10
2017-04-19T11:56:47.964Z,1026.12
2017-04-19T11:57:49.402Z,1026.21
2017-04-19T11:58:50.831Z,1026.26
2017-04-19T11:59:52.266Z,1026.23
2017-04-19T12:00:53.695Z,1026.21
2017-04-19T12:01:55.123Z,1026.28
2017-04-19T12:02:56.552Z,1026.20
2017-04-19T12:03:57.987Z,1026.30
2017-04-19T12:04:59.412Z,1026.23
2017-04-19T12:06:00.843Z,1026.17
2017-04-19T12:07:02.269Z,1026.11
2017-04-19T12:08:03.704Z,1026.13
2017-04-19T12:09:05.723Z,1026.14
2017-04-19T12:10:07.144Z,1026.08
2017-04-19T12:11:08.590Z,1026.13
2017-04-19T12:12:10.022Z,1026.17
2017-04-19T12:13:11.459Z,1026.13
2017-04-19T12:14:12.884Z,1026.12
2017-04-19T12:15:14.315Z,1026.16
2017-04-19T12:16:15.747Z,1026.08
2017-04-19T12:17:17.181Z,1026.10
2017-04-19T12:18:18.607Z,1026.09
2017-04-19T12:19:20.031Z,1026.12
2017-04-19T12:20:21.469Z,1026.10
2017-04-19T12:21:22.896Z,1026.06
2017-04-19T12:22:24.323Z,1026.03
2017-04-19T12:23:25.757Z,1026.12
2017-04-19T12:24:27.188Z,1026.19